createdAt,value
2023-08-02T00:00:00.620Z,91.6
2023-08-02T00:05:00.672Z,92.3
2023-08-02T00:10:00.767Z,91.8
2023-08-02T00:15:00.620Z,91.4
2023-08-02T00:20:00.558Z,91.6
2023-08-02T00:25:00.623Z,91.0
2023-08-02T00:30:00.617Z,90.8
2023-08-02T00:35:00.548Z,90.4
2023-08-02T00:40:00.773Z,90.7
2023-08-02T00:45:00.608Z,89.9
2023-08-02T00:50:00.552Z,90.7
2023-08-02T00:55:00.624Z,91.8
2023-08-02T01:00:02.399Z,91.8
2023-08-02T01:05:00.566Z,92.0
2023-08-02T01:10:00.688Z,92.3
2023-08-02T01:15:00.678Z,91.7
2023-08-02T01:20:00.557Z,91.3
2023-08-02T01:25:00.672Z,91.2
2023-08-02T01:30:00.700Z,91.0
2023-08-02T01:35:00.544Z,90.7
2023-08-02T01:40:02.801Z,90.4
2023-08-02T01:45:00.617Z,90.5
2023-08-02T01:50:00.562Z,91.0
2023-08-02T01:55:00.667Z,91.3
2023-08-02T02:00:01.047Z,91.8
2023-08-02T02:05:00.558Z,91.9
2023-08-02T02:10:00.668Z,92.2
2023-08-02T02:15:00.646Z,91.9
2023-08-02T02:20:00.556Z,91.7
2023-08-02T02:25:00.654Z,92.0
2023-08-02T02:30:00.805Z,92.4
2023-08-02T02:35:00.579Z,93.3
2023-08-02T02:40:00.644Z,93.3
2023-08-02T02:45:00.594Z,94.4
2023-08-02T02:50:00.684Z,95.4
2023-08-02T02:55:00.634Z,97.2
2023-08-02T03:00:00.553Z,98.4
2023-08-02T03:05:00.623Z,97.2
2023-08-02T03:10:00.596Z,98.3
2023-08-02T03:15:00.556Z,98.0
2023-08-02T03:20:00.670Z,97.5
2023-08-02T03:25:00.655Z,98.1
2023-08-02T03:30:00.546Z,98.4
2023-08-02T03:35:00.706Z,97.5
2023-08-02T03:40:00.644Z,99.5
2023-08-02T03:45:00.546Z,99.2
2023-08-02T03:50:00.674Z,98.8
2023-08-02T03:55:00.672Z,98.4
2023-08-02T04:00:00.548Z,98.6
2023-08-02T04:05:00.667Z,98.8
2023-08-02T04:10:00.642Z,99.9
2023-08-02T04:15:00.575Z,99.5
2023-08-02T04:20:00.626Z,98.6
2023-08-02T04:25:00.691Z,99.2
2023-08-02T04:30:00.701Z,99.2
2023-08-02T04:35:00.550Z,99.2
2023-08-02T04:40:00.696Z,98.9
2023-08-02T04:45:00.673Z,98.1
2023-08-02T04:50:00.546Z,98.2
2023-08-02T04:55:00.655Z,97.6
2023-08-02T05:00:00.695Z,97.1
2023-08-02T05:05:00.558Z,97.5
2023-08-02T05:10:00.622Z,96.4
2023-08-02T05:15:00.757Z,96.3
2023-08-02T05:20:00.548Z,95.2
2023-08-02T05:25:00.690Z,94.9
2023-08-02T05:30:00.679Z,94.9
2023-08-02T05:35:00.555Z,94.4
2023-08-02T05:40:00.611Z,93.6
2023-08-02T05:45:00.659Z,93.6
2023-08-02T05:50:00.553Z,93.9
2023-08-02T05:55:00.683Z,93.8
2023-08-02T06:00:00.725Z,93.2
2023-08-02T06:05:00.567Z,93.3
2023-08-02T06:10:00.671Z,92.9
2023-08-02T06:15:00.614Z,92.5
2023-08-02T06:20:00.633Z,91.7
2023-08-02T06:25:00.605Z,91.2
2023-08-02T06:30:00.770Z,90.6
2023-08-02T06:35:00.609Z,90.5
2023-08-02T06:40:00.608Z,89.9
2023-08-02T06:45:00.591Z,88.6
2023-08-02T06:50:00.555Z,88.4
2023-08-02T06:55:00.635Z,88.3
2023-08-02T07:00:03.792Z,86.0
2023-08-02T07:05:00.545Z,87.6
2023-08-02T07:10:00.676Z,85.8
2023-08-02T07:15:00.654Z,85.8
2023-08-02T07:20:00.571Z,85.5
2023-08-02T07:25:00.656Z,85.1
2023-08-02T07:30:00.647Z,84.5
2023-08-02T07:35:00.605Z,85.3
2023-08-02T07:40:00.615Z,83.7
2023-08-02T07:45:00.605Z,83.0
2023-08-02T07:50:00.551Z,81.9
2023-08-02T07:55:00.619Z,81.2
2023-08-02T08:00:00.866Z,81.3
2023-08-02T08:05:00.591Z,79.3
2023-08-02T08:10:00.612Z,78.3
2023-08-02T08:15:00.607Z,78.7
2023-08-02T08:20:00.551Z,77.9
2023-08-02T08:25:00.601Z,77.7
2023-08-02T08:30:00.691Z,77.3
2023-08-02T08:35:00.549Z,76.1
2023-08-02T08:40:13.937Z,75.8
2023-08-02T08:45:00.689Z,74.4
2023-08-02T08:50:00.580Z,72.3
2023-08-02T08:55:00.615Z,71.4
2023-08-02T09:00:00.937Z,70.2
2023-08-02T09:05:00.567Z,69.2
2023-08-02T09:10:02.772Z,68.5
2023-08-02T09:15:00.649Z,70.0
2023-08-02T09:20:00.551Z,70.3
2023-08-02T09:25:00.590Z,69.3
2023-08-02T09:30:00.657Z,68.2
2023-08-02T09:35:00.592Z,68.7
2023-08-02T09:40:00.778Z,68.9
2023-08-02T09:45:00.610Z,69.4
2023-08-02T09:50:00.555Z,69.5
2023-08-02T09:55:00.606Z,70.2
2023-08-02T10:00:00.961Z,70.1
2023-08-02T10:05:00.588Z,69.3
2023-08-02T10:10:00.679Z,69.5
2023-08-02T10:15:00.596Z,70.0
2023-08-02T10:20:00.576Z,70.8
2023-08-02T10:25:00.618Z,70.5
2023-08-02T10:30:00.668Z,70.0
2023-08-02T10:35:00.560Z,70.0
2023-08-02T10:40:00.607Z,71.0
2023-08-02T10:45:00.617Z,71.1
2023-08-02T10:50:00.556Z,71.7
2023-08-02T10:55:00.604Z,71.7
2023-08-02T11:00:02.640Z,70.7
2023-08-02T11:05:00.664Z,71.4
2023-08-02T11:10:00.617Z,71.5
2023-08-02T11:15:00.669Z,71.7
2023-08-02T11:25:00.589Z,71.4
2023-08-02T11:30:00.768Z,71.2
2023-08-02T11:35:00.565Z,71.0
2023-08-02T11:40:19.782Z,70.8
2023-08-02T11:45:14.754Z,69.3
2023-08-02T11:50:00.543Z,68.9
2023-08-02T11:55:00.605Z,69.8
2023-08-02T12:00:00.660Z,69.8
2023-08-02T12:05:00.559Z,70.6
2023-08-02T12:10:00.627Z,73.7
2023-08-02T12:15:00.610Z,82.5
2023-08-02T12:20:00.560Z,81.7
2023-08-02T12:25:00.589Z,83.0
2023-08-02T12:30:00.599Z,83.5
2023-08-02T12:35:11.191Z,79.4
2023-08-02T12:40:00.612Z,79.4
2023-08-02T12:45:15.386Z,81.0
2023-08-02T12:50:00.561Z,79.6
2023-08-02T12:55:00.624Z,79.9
2023-08-02T13:00:00.884Z,81.0
2023-08-02T13:05:00.554Z,81.3
2023-08-02T13:10:00.617Z,80.8
2023-08-02T13:15:00.619Z,80.5
2023-08-02T13:20:00.565Z,81.2
2023-08-02T13:25:00.611Z,81.9
2023-08-02T13:30:00.627Z,82.5
2023-08-02T13:35:01.824Z,82.5
2023-08-02T13:40:00.619Z,82.5
2023-08-02T13:45:00.626Z,86.9
2023-08-02T13:50:00.574Z,86.8
2023-08-02T13:55:00.622Z,87.8
2023-08-02T14:00:00.792Z,87.4
2023-08-02T14:05:00.691Z,88.6
2023-08-02T14:10:00.604Z,89.1
2023-08-02T14:15:00.624Z,91.2
2023-08-02T14:20:00.556Z,91.6
2023-08-02T14:25:00.650Z,91.8
2023-08-02T14:30:01.387Z,92.5
2023-08-02T14:35:00.555Z,93.5
2023-08-02T14:40:00.788Z,95.2
2023-08-02T14:45:00.646Z,96.9
2023-08-02T14:50:00.553Z,96.1
2023-08-02T15:00:01.374Z,96.1
2023-08-02T15:05:00.582Z,96.6
2023-08-02T15:10:00.655Z,96.3
2023-08-02T15:15:00.628Z,97.8
2023-08-02T15:20:00.562Z,98.3
2023-08-02T15:25:00.596Z,98.4
2023-08-02T15:30:00.619Z,99.1
2023-08-02T15:35:00.574Z,98.5
2023-08-02T15:40:00.618Z,100.0
2023-08-02T15:45:03.115Z,99.4
2023-08-02T15:50:00.549Z,99.2
2023-08-02T15:55:00.631Z,98.8
2023-08-02T16:00:00.662Z,98.4
2023-08-02T16:05:00.546Z,98.1
2023-08-02T16:10:00.658Z,98.2
2023-08-02T16:15:00.690Z,98.8
2023-08-02T16:20:00.733Z,98.7
2023-08-02T16:25:00.607Z,98.6
2023-08-02T16:30:00.634Z,99.2
2023-08-02T16:35:00.549Z,98.3
2023-08-02T16:40:00.631Z,98.2
2023-08-02T16:45:00.665Z,98.0
2023-08-02T16:50:00.552Z,97.5
2023-08-02T16:55:00.632Z,97.0
2023-08-02T17:00:00.642Z,95.8
2023-08-02T17:05:00.558Z,96.0
2023-08-02T17:10:00.624Z,97.2
2023-08-02T17:15:00.716Z,97.0
2023-08-02T17:20:00.562Z,97.5
2023-08-02T17:25:00.696Z,97.7
2023-08-02T17:30:00.625Z,96.8
2023-08-02T17:35:00.558Z,96.1
2023-08-02T17:40:00.606Z,95.5
2023-08-02T17:45:00.683Z,94.4
2023-08-02T17:50:00.591Z,94.5
2023-08-02T17:55:00.654Z,92.9
2023-08-02T18:00:00.678Z,92.7
2023-08-02T18:05:00.604Z,92.4
2023-08-02T18:10:00.693Z,92.3
2023-08-02T18:15:00.639Z,92.8
2023-08-02T18:20:00.620Z,92.1
2023-08-02T18:25:01.214Z,92.1
2023-08-02T18:30:01.020Z,92.2
2023-08-02T18:35:00.577Z,92.5
2023-08-02T18:40:00.643Z,91.8
2023-08-02T18:45:00.630Z,92.1
2023-08-02T18:50:00.592Z,91.9
2023-08-02T18:55:00.593Z,91.2
2023-08-02T19:00:00.710Z,92.0
2023-08-02T19:05:00.559Z,92.2
2023-08-02T19:10:00.795Z,93.2
2023-08-02T19:15:00.616Z,93.1
2023-08-02T19:20:00.571Z,92.7
2023-08-02T19:25:00.761Z,93.1
2023-08-02T19:30:00.641Z,93.5
2023-08-02T19:35:00.553Z,93.7
2023-08-02T19:40:00.622Z,94.3
2023-08-02T19:45:00.621Z,94.2
2023-08-02T19:50:00.550Z,94.0
2023-08-02T19:55:00.646Z,95.3
2023-08-02T20:00:00.702Z,93.3
2023-08-02T20:05:00.582Z,93.5
2023-08-02T20:10:00.648Z,96.2
2023-08-02T20:15:00.613Z,93.5
2023-08-02T20:20:00.567Z,93.6
2023-08-02T20:25:00.582Z,92.3
2023-08-02T20:30:02.264Z,92.1
2023-08-02T20:35:00.570Z,91.1
2023-08-02T20:40:00.622Z,90.1
2023-08-02T20:45:00.636Z,89.5
2023-08-02T20:50:00.583Z,89.4
2023-08-02T20:55:00.661Z,87.0
2023-08-02T21:00:00.615Z,87.1
2023-08-02T21:05:00.594Z,86.9
2023-08-02T21:10:00.599Z,86.3
2023-08-02T21:15:00.910Z,85.9
2023-08-02T21:20:00.565Z,85.4
2023-08-02T21:25:00.630Z,84.9
2023-08-02T21:30:00.692Z,84.5
2023-08-02T21:35:00.569Z,83.4
2023-08-02T21:40:00.602Z,83.5
2023-08-02T21:45:00.608Z,83.4
2023-08-02T21:50:00.545Z,83.4
2023-08-02T21:55:00.599Z,84.3
2023-08-02T22:00:02.919Z,84.5
2023-08-02T22:05:00.574Z,84.6
2023-08-02T22:10:00.790Z,83.6
2023-08-02T22:15:00.577Z,83.4
2023-08-02T22:20:00.561Z,82.3
2023-08-02T22:25:00.599Z,81.9
2023-08-02T22:30:00.608Z,81.5
2023-08-02T22:35:00.585Z,81.8
2023-08-02T22:40:00.631Z,81.0
2023-08-02T22:45:00.556Z,80.7
2023-08-02T22:55:00.609Z,80.8
2023-08-02T23:00:00.557Z,80.8
2023-08-02T23:05:00.553Z,80.9
2023-08-02T23:10:00.615Z,81.1
2023-08-02T23:15:00.601Z,80.8
2023-08-02T23:20:00.549Z,80.5
2023-08-02T23:25:00.590Z,80.4
2023-08-02T23:30:00.552Z,80.4
2023-08-02T23:35:00.617Z,80.3
2023-08-02T23:40:00.609Z,81.1
2023-08-02T23:45:00.585Z,81.2
2023-08-02T23:50:00.564Z,81.5
2023-08-02T23:55:00.805Z,81.1
